Wabush, Canada
Current Conditions -  °F | °C
As of 11:00 AM on Wednesday 22 Oct 2014 (Local Time) from CYWK Reporting Station
Scattered Clouds Scattered Clouds  
Wind Chill: 19°   Ceiling: Unl
Heat Index: 27°   Visibility: 15mi
Dew Point: 23°   Wind: 7mph
Humidity: 86%   Direction: 230°SW
Pressure: 30.44"   Gusts: NA
Location:  52.9°N, 66.87°W
Report Text: CYWK 221400Z 23006KT 190V280 15SM SCT300 M03/M05 A3044 RMK CI3 SLP342
Loading
Personal Weather Stations






























Interactive Weather Map
Tropical Storm Tracking
New forecast layout! Learn more

10-Day Weather Forecast

Advertisements
Track Severe Weather on mobile